Time;durP1;ratioP1;P1;durP2;ratioP2;P2;SDS_P1;SDS_P2;PMS_P1;PMS_P2;Temp;Humidity;BMP_temperature;BMP_pressure;BME280_temperature;BME280_humidity;BME280_pressure;Samples;Min_cycle;Max_cycle;Signal;HPM_P1;HPM_P2
2021/04/05 00:01:09;;;;;;;19.13;7.40;;;;;;;;;;5125119;27;20214;-53
2021/04/05 00:03:34;;;;;;;17.40;8.20;;;;;;;;;;5131436;27;20042;-54
2021/04/05 00:06:00;;;;;;;16.07;7.17;;;;;;;;;;5115285;27;20417;-51
2021/04/05 00:08:25;;;;;;;15.13;7.20;;;;;;;;;;5126282;27;20019;-53
2021/04/05 00:10:51;;;;;;;15.47;7.30;;;;;;;;;;5128782;27;20019;-49
2021/04/05 00:13:19;;;;;;;13.60;7.20;;;;;;;;;;5127176;27;20019;-52
2021/04/05 00:15:45;;;;;;;16.53;7.70;;;;;;;;;;5123063;27;20098;-53
2021/04/05 00:18:11;;;;;;;22.40;7.73;;;;;;;;;;5124942;27;20110;-51
2021/04/05 00:20:38;;;;;;;14.37;7.13;;;;;;;;;;5128304;27;20012;-48
2021/04/05 00:23:03;;;;;;;17.97;7.83;;;;;;;;;;5122686;27;20533;-52
2021/04/05 00:25:29;;;;;;;18.70;7.10;;;;;;;;;;5134486;27;20094;-52
2021/04/05 00:27:54;;;;;;;14.97;7.03;;;;;;;;;;5130236;27;20106;-53
2021/04/05 00:30:21;;;;;;;16.73;7.60;;;;;;;;;;5114790;27;20386;-52
2021/04/05 00:32:47;;;;;;;22.20;7.23;;;;;;;;;;5124600;27;20462;-52
2021/04/05 00:35:14;;;;;;;17.83;6.50;;;;;;;;;;5115176;27;20027;-49
2021/04/05 00:37:40;;;;;;;16.80;7.03;;;;;;;;;;5126346;27;20035;-52
2021/04/05 00:40:07;;;;;;;15.80;7.27;;;;;;;;;;5116119;27;20030;-52
2021/04/05 00:42:32;;;;;;;17.00;7.67;;;;;;;;;;5122484;27;20015;-52
2021/04/05 00:44:57;;;;;;;14.17;6.93;;;;;;;;;;5126061;27;20095;-50
2021/04/05 00:47:23;;;;;;;20.10;8.20;;;;;;;;;;5124111;27;20098;-56
2021/04/05 00:49:48;;;;;;;20.67;8.30;;;;;;;;;;5134182;27;20015;-55
2021/04/05 00:52:13;;;;;;;16.17;8.20;;;;;;;;;;5126796;27;20031;-55
2021/04/05 00:54:39;;;;;;;15.10;7.67;;;;;;;;;;5120514;27;20023;-53
2021/04/05 00:57:05;;;;;;;15.40;7.83;;;;;;;;;;5125620;27;20086;-51
2021/04/05 00:59:30;;;;;;;24.73;8.23;;;;;;;;;;5117366;27;20103;-53
2021/04/05 01:01:56;;;;;;;16.57;7.80;;;;;;;;;;5122253;27;20023;-51
2021/04/05 01:04:21;;;;;;;18.07;6.57;;;;;;;;;;5115531;27;20047;-54
2021/04/05 01:06:46;;;;;;;21.10;7.67;;;;;;;;;;5125305;27;20026;-50
2021/04/05 01:09:31;;;;;;;16.07;7.90;;;;;;;;;;5129179;27;20520;-55
2021/04/05 01:11:56;;;;;;;15.60;7.88;;;;;;;;;;5077073;28;20036;-54
2021/04/05 01:14:22;;;;;;;18.73;7.67;;;;;;;;;;5071236;28;20482;-52
2021/04/05 01:16:47;;;;;;;15.70;8.07;;;;;;;;;;5070087;28;20040;-51
2021/04/05 01:19:12;;;;;;;18.33;7.83;;;;;;;;;;5069817;28;20027;-53
2021/04/05 01:21:38;;;;;;;17.73;7.63;;;;;;;;;;5067447;28;20032;-50
2021/04/05 01:24:04;;;;;;;16.33;7.50;;;;;;;;;;5073158;28;20035;-54
2021/04/05 01:26:33;;;;;;;15.97;7.33;;;;;;;;;;5077885;28;20079;-52
2021/04/05 01:28:58;;;;;;;17.87;7.43;;;;;;;;;;5068915;28;20115;-54
2021/04/05 01:31:23;;;;;;;21.97;8.73;;;;;;;;;;5076790;28;20661;-52
2021/04/05 01:33:49;;;;;;;18.03;9.27;;;;;;;;;;5072840;28;20115;-55
2021/04/05 01:36:15;;;;;;;20.40;9.47;;;;;;;;;;5087819;28;20032;-54
2021/04/05 01:38:42;;;;;;;16.23;7.97;;;;;;;;;;5074117;28;20063;-54
2021/04/05 01:41:07;;;;;;;24.73;9.60;;;;;;;;;;5069322;28;20918;-48
2021/04/05 01:43:32;;;;;;;22.03;9.47;;;;;;;;;;5110660;27;20043;-52
2021/04/05 01:45:58;;;;;;;20.47;9.87;;;;;;;;;;5131809;27;20019;-55
2021/04/05 01:48:25;;;;;;;21.20;8.90;;;;;;;;;;5121276;27;20023;-55
2021/04/05 01:50:50;;;;;;;17.97;6.73;;;;;;;;;;5126044;27;20098;-53
2021/04/05 01:53:19;;;;;;;23.00;10.00;;;;;;;;;;5130433;27;20023;-53
2021/04/05 01:55:44;;;;;;;20.50;9.20;;;;;;;;;;5131030;27;20390;-53
2021/04/05 01:58:10;;;;;;;21.70;8.67;;;;;;;;;;5130872;27;20031;-54
2021/04/05 02:00:37;;;;;;;26.50;10.67;;;;;;;;;;5127177;27;20369;-55
2021/04/05 02:03:07;;;;;;;22.20;10.03;;;;;;;;;;5109943;28;20028;-54
2021/04/05 02:05:33;;;;;;;20.20;11.10;;;;;;;;;;5115230;28;20949;-53
2021/04/05 02:07:58;;;;;;;29.07;13.07;;;;;;;;;;5128915;27;20068;-51
2021/04/05 02:10:25;;;;;;;26.23;10.93;;;;;;;;;;5125016;28;20015;-49
2021/04/05 02:12:51;;;;;;;22.93;10.97;;;;;;;;;;5121477;27;20355;-52
2021/04/05 02:15:17;;;;;;;15.53;7.53;;;;;;;;;;5112415;28;20443;-54
2021/04/05 02:17:46;;;;;;;23.73;11.50;;;;;;;;;;5126108;27;20024;-53
2021/04/05 02:20:12;;;;;;;18.10;8.47;;;;;;;;;;5136615;27;20474;-52
2021/04/05 02:22:42;;;;;;;22.13;10.87;;;;;;;;;;5122489;27;20072;-54
2021/04/05 02:25:10;;;;;;;24.77;12.40;;;;;;;;;;5135520;27;20060;-55
2021/04/05 02:27:35;;;;;;;21.23;9.20;;;;;;;;;;5132096;27;20068;-54
2021/04/05 02:30:01;;;;;;;23.50;10.40;;;;;;;;;;5135117;27;20019;-54
2021/04/05 02:32:26;;;;;;;22.80;10.27;;;;;;;;;;5117209;27;20035;-51
2021/04/05 02:34:51;;;;;;;24.43;10.03;;;;;;;;;;5121936;27;20081;-54
2021/04/05 02:37:17;;;;;;;25.53;10.60;;;;;;;;;;5132732;27;20118;-53
2021/04/05 02:39:42;;;;;;;22.13;8.60;;;;;;;;;;5129600;27;20463;-53
2021/04/05 02:42:08;;;;;;;21.67;11.40;;;;;;;;;;5127846;27;20466;-53
2021/04/05 02:44:33;;;;;;;19.63;9.87;;;;;;;;;;5119180;27;20035;-49
2021/04/05 02:46:58;;;;;;;20.63;9.50;;;;;;;;;;5134218;27;20015;-55
2021/04/05 02:49:24;;;;;;;19.93;10.33;;;;;;;;;;5135727;27;20055;-54
2021/04/05 02:51:49;;;;;;;22.17;9.50;;;;;;;;;;5132486;27;20062;-52
2021/04/05 02:54:17;;;;;;;22.13;10.63;;;;;;;;;;5117883;27;20032;-51
2021/04/05 02:56:42;;;;;;;19.77;8.77;;;;;;;;;;5123882;27;20084;-51
2021/04/05 02:59:08;;;;;;;19.53;9.57;;;;;;;;;;5127884;27;20106;-55
2021/04/05 03:01:34;;;;;;;22.40;9.00;;;;;;;;;;5119509;27;20103;-56
2021/04/05 03:03:59;;;;;;;17.57;8.63;;;;;;;;;;5125571;27;20031;-52
2021/04/05 03:06:26;;;;;;;24.27;9.90;;;;;;;;;;5128103;27;20086;-51
2021/04/05 03:08:51;;;;;;;23.07;10.10;;;;;;;;;;5127493;27;20019;-54
2021/04/05 03:11:17;;;;;;;17.90;8.27;;;;;;;;;;5126301;27;20395;-52
2021/04/05 03:13:43;;;;;;;22.00;10.10;;;;;;;;;;5123968;27;20047;-53
2021/04/05 03:16:14;;;;;;;17.73;7.67;;;;;;;;;;5130156;27;20046;-54
2021/04/05 03:18:39;;;;;;;17.03;8.33;;;;;;;;;;5119703;27;20121;-55
2021/04/05 03:21:06;;;;;;;21.77;10.60;;;;;;;;;;5121655;27;20302;-53
2021/04/05 03:23:32;;;;;;;20.13;10.13;;;;;;;;;;5130394;27;20095;-53
2021/04/05 03:25:57;;;;;;;21.43;8.97;;;;;;;;;;5128506;27;20094;-53
2021/04/05 03:28:22;;;;;;;18.80;10.30;;;;;;;;;;5122757;27;20118;-55
2021/04/05 03:30:53;;;;;;;21.63;11.23;;;;;;;;;;5118906;27;20398;-52
2021/04/05 03:33:34;;;;;;;19.23;8.97;;;;;;;;;;5125212;27;20023;-51
2021/04/05 03:36:02;;;;;;;19.67;11.40;;;;;;;;;;5125260;27;20535;-54
2021/04/05 03:38:27;;;;;;;24.07;12.37;;;;;;;;;;5116385;27;20020;-53
2021/04/05 03:40:54;;;;;;;21.50;9.00;;;;;;;;;;5118329;27;20323;-52
2021/04/05 03:43:25;;;;;;;19.10;10.13;;;;;;;;;;5124042;27;20052;-54
2021/04/05 03:45:55;;;;;;;20.83;9.47;;;;;;;;;;5131858;27;20110;-53
2021/04/05 03:48:35;;;;;;;18.10;10.53;;;;;;;;;;5136203;27;20367;-52
2021/04/05 03:51:12;;;;;;;17.33;9.13;;;;;;;;;;5124284;27;20043;-51
2021/04/05 03:53:43;;;;;;;22.70;10.23;;;;;;;;;;5120332;27;20034;-52
2021/04/05 03:56:13;;;;;;;19.10;9.10;;;;;;;;;;5124454;27;20077;-52
2021/04/05 03:58:41;;;;;;;19.10;8.17;;;;;;;;;;5126525;27;20023;-54
2021/04/05 04:01:07;;;;;;;20.73;10.07;;;;;;;;;;5116882;27;20080;-50
2021/04/05 04:03:53;;;;;;;21.73;10.83;;;;;;;;;;5135741;27;20463;-55
2021/04/05 04:06:20;;;;;;;;;;;;;;;;;;5115017;27;20041;-50
2021/04/05 04:08:46;;;;;;;19.50;10.00;;;;;;;;;;5122204;27;19907;-53
2021/04/05 04:11:13;;;;;;;23.03;12.53;;;;;;;;;;5122384;27;20023;-52
2021/04/05 04:13:41;;;;;;;21.70;11.60;;;;;;;;;;5135305;27;20117;-55
2021/04/05 04:16:08;;;;;;;20.57;9.87;;;;;;;;;;5134619;27;20034;-52
2021/04/05 04:18:33;;;;;;;21.70;11.83;;;;;;;;;;5121766;27;20072;-51
2021/04/05 04:20:59;;;;;;;20.13;11.27;;;;;;;;;;5123255;27;20023;-54
2021/04/05 04:23:24;;;;;;;26.60;12.60;;;;;;;;;;5122614;27;20022;-50
2021/04/05 04:25:51;;;;;;;22.93;10.23;;;;;;;;;;5122827;27;20094;-54
2021/04/05 04:28:16;;;;;;;23.47;10.63;;;;;;;;;;5130790;27;20523;-54
2021/04/05 04:30:42;;;;;;;21.30;11.30;;;;;;;;;;5120725;27;20015;-55
2021/04/05 04:33:08;;;;;;;23.23;13.03;;;;;;;;;;5117240;27;20038;-53
2021/04/05 04:35:34;;;;;;;24.13;12.47;;;;;;;;;;5133059;27;20023;-53
2021/04/05 04:38:00;;;;;;;26.70;11.77;;;;;;;;;;5131986;27;20019;-52
2021/04/05 04:40:26;;;;;;;21.63;13.10;;;;;;;;;;5128454;27;20512;-51
2021/04/05 04:42:51;;;;;;;21.30;10.93;;;;;;;;;;5120494;27;20370;-52
2021/04/05 04:45:17;;;;;;;22.20;11.93;;;;;;;;;;5113496;27;20037;-54
2021/04/05 04:47:42;;;;;;;21.00;10.15;;;;;;;;;;5132187;27;20038;-50
2021/04/05 04:50:08;;;;;;;22.63;10.53;;;;;;;;;;5134547;27;20047;-52
2021/04/05 04:52:33;;;;;;;21.35;10.18;;;;;;;;;;5129022;27;20015;-53
2021/04/05 04:54:59;;;;;;;22.83;11.17;;;;;;;;;;5131811;27;20498;-52
2021/04/05 04:57:24;;;;;;;27.27;13.30;;;;;;;;;;5123187;27;20015;-49
2021/04/05 04:59:49;;;;;;;21.80;11.53;;;;;;;;;;5132717;27;20026;-53
2021/04/05 05:02:14;;;;;;;26.57;11.53;;;;;;;;;;5129686;27;20030;-52
2021/04/05 05:04:40;;;;;;;24.50;12.33;;;;;;;;;;5132820;27;20031;-46
2021/04/05 05:07:06;;;;;;;25.10;11.50;;;;;;;;;;5115324;27;20426;-50
2021/04/05 05:09:32;;;;;;;23.42;9.82;;;;;;;;;;5113621;28;20435;-51
2021/04/05 05:11:58;;;;;;;14.27;6.47;;;;;;;;;;5124708;27;20031;-50
2021/04/05 05:14:23;;;;;;;23.17;12.77;;;;;;;;;;5122164;27;20023;-53
2021/04/05 05:16:48;;;;;;;19.67;6.07;;;;;;;;;;5121628;27;20023;-53
2021/04/05 05:19:14;;;;;;;14.35;7.22;;;;;;;;;;5128318;27;20175;-53
2021/04/05 05:21:43;;;;;;;19.38;12.13;;;;;;;;;;5123245;27;20022;-51
2021/04/05 05:24:11;;;;;;;25.95;15.05;;;;;;;;;;5121716;27;20030;-49
2021/04/05 05:26:37;;;;;;;29.40;12.57;;;;;;;;;;5131623;27;20019;-50
2021/04/05 05:29:05;;;;;;;9.77;4.37;;;;;;;;;;5126212;27;20176;-51
2021/04/05 05:31:30;;;;;;;15.57;8.13;;;;;;;;;;5130854;27;20097;-53
2021/04/05 05:33:56;;;;;;;19.60;9.65;;;;;;;;;;5112035;27;20107;-54
2021/04/05 05:36:21;;;;;;;14.05;7.88;;;;;;;;;;5111140;27;20381;-54
2021/04/05 05:38:46;;;;;;;19.58;12.43;;;;;;;;;;5121877;27;20019;-51
2021/04/05 05:41:35;;;;;;;20.95;11.15;;;;;;;;;;5121636;27;20026;-50
2021/04/05 05:44:04;;;;;;;23.70;13.13;;;;;;;;;;5046164;28;20151;-51
2021/04/05 05:46:35;;;;;;;24.73;12.50;;;;;;;;;;5049390;28;20067;-50
2021/04/05 05:49:11;;;;;;;15.85;8.20;;;;;;;;;;5045871;28;20039;-53
2021/04/05 05:51:55;;;;;;;19.05;12.75;;;;;;;;;;5039366;28;20048;-48
2021/04/05 05:54:44;;;;;;;25.90;14.02;;;;;;;;;;5043659;28;20043;-52
2021/04/05 05:57:12;;;;;;;22.88;14.10;;;;;;;;;;5048486;28;20441;-52
2021/04/05 05:59:51;;;;;;;20.30;10.55;;;;;;;;;;5045030;28;20028;-53
2021/04/05 06:02:34;;;;;;;22.88;12.32;;;;;;;;;;5026819;28;20041;-53
2021/04/05 06:05:05;;;;;;;22.65;12.98;;;;;;;;;;5041230;28;20021;-53
2021/04/05 06:07:30;;;;;;;21.27;12.75;;;;;;;;;;5034690;28;20029;-51
2021/04/05 06:09:55;;;;;;;16.52;7.30;;;;;;;;;;5047372;28;20407;-50
2021/04/05 06:12:24;;;;;;;22.38;11.40;;;;;;;;;;5028609;28;20039;-53
2021/04/05 06:15:05;;;;;;;18.38;9.35;;;;;;;;;;5047336;28;20126;-52
2021/04/05 06:17:48;;;;;;;21.05;12.77;;;;;;;;;;5042840;28;20033;-52
2021/04/05 06:20:23;;;;;;;21.10;9.82;;;;;;;;;;5054967;28;20092;-51
2021/04/05 06:22:52;;;;;;;24.25;13.38;;;;;;;;;;5119465;27;20486;-54
2021/04/05 06:25:43;;;;;;;13.65;7.85;;;;;;;;;;5122238;28;20068;-52
2021/04/05 06:28:21;;;;;;;17.73;10.52;;;;;;;;;;5090489;28;20121;-47
2021/04/05 06:30:52;;;;;;;20.85;9.77;;;;;;;;;;5116059;27;20390;-51
2021/04/05 06:33:27;;;;;;;19.83;10.95;;;;;;;;;;5110721;28;20028;-51
2021/04/05 06:35:58;;;;;;;16.70;7.80;;;;;;;;;;5116249;28;20073;-54
2021/04/05 06:38:30;;;;;;;17.15;8.98;;;;;;;;;;5114345;28;20408;-57
2021/04/05 06:40:57;;;;;;;19.30;9.50;;;;;;;;;;5129869;27;20049;-54
2021/04/05 06:43:41;;;;;;;17.95;9.95;;;;;;;;;;5119463;27;20404;-56
2021/04/05 06:46:28;;;;;;;19.73;8.77;;;;;;;;;;5116709;28;20035;-52
2021/04/05 06:48:59;;;;;;;16.63;9.75;;;;;;;;;;5117955;28;20479;-52
2021/04/05 06:51:38;;;;;;;18.23;8.90;;;;;;;;;;5114498;28;20063;-52
2021/04/05 06:54:22;;;;;;;21.85;10.55;;;;;;;;;;5119240;27;20379;-53
2021/04/05 06:56:56;;;;;;;16.73;7.65;;;;;;;;;;5125198;28;20087;-50
2021/04/05 06:59:40;;;;;;;21.52;9.57;;;;;;;;;;5117753;28;20023;-50
2021/04/05 07:02:20;;;;;;;16.98;7.50;;;;;;;;;;5116882;28;20023;-55
2021/04/05 07:04:57;;;;;;;19.30;7.55;;;;;;;;;;5122970;27;20461;-51
2021/04/05 07:07:38;;;;;;;18.10;9.05;;;;;;;;;;5133940;27;20389;-54
2021/04/05 07:10:29;;;;;;;16.92;8.27;;;;;;;;;;5133340;27;20090;-52
2021/04/05 07:13:05;;;;;;;18.23;9.15;;;;;;;;;;5129264;27;20075;-54
2021/04/05 07:15:33;;;;;;;16.23;7.90;;;;;;;;;;5131487;27;20401;-55
2021/04/05 07:18:01;;;;;;;12.20;5.63;;;;;;;;;;5119629;27;20031;-52
2021/04/05 07:20:35;;;;;;;11.13;5.55;;;;;;;;;;5135861;27;20192;-56
2021/04/05 07:23:19;;;;;;;18.58;8.73;;;;;;;;;;5118420;27;20811;-55
2021/04/05 07:25:50;;;;;;;19.27;7.63;;;;;;;;;;5122405;27;20032;-55
2021/04/05 07:28:33;;;;;;;12.77;4.93;;;;;;;;;;5131837;27;20019;-52
2021/04/05 07:31:07;;;;;;;17.13;7.00;;;;;;;;;;5116671;27;20038;-54
2021/04/05 07:33:36;;;;;;;18.15;8.85;;;;;;;;;;5121953;27;20076;-52
2021/04/05 07:36:08;;;;;;;9.38;4.93;;;;;;;;;;5122569;27;20030;-53
2021/04/05 07:38:52;;;;;;;15.35;7.32;;;;;;;;;;5130178;27;20035;-53
2021/04/05 07:41:23;;;;;;;17.73;8.98;;;;;;;;;;5122154;27;20552;-54
2021/04/05 07:44:02;;;;;;;13.27;4.88;;;;;;;;;;5127454;27;20024;-54
2021/04/05 07:46:33;;;;;;;15.93;8.63;;;;;;;;;;5120518;27;20027;-51
2021/04/05 07:49:11;;;;;;;15.20;7.55;;;;;;;;;;5121480;27;20027;-52
2021/04/05 07:51:39;;;;;;;14.02;7.18;;;;;;;;;;5115605;27;20079;-55
2021/04/05 07:54:05;;;;;;;8.10;3.47;;;;;;;;;;5118451;27;20027;-53
2021/04/05 07:56:31;;;;;;;16.48;8.35;;;;;;;;;;5121763;27;20027;-55
2021/04/05 07:59:12;;;;;;;13.80;6.05;;;;;;;;;;5121618;27;20473;-52
2021/04/05 08:01:55;;;;;;;14.80;7.25;;;;;;;;;;5115222;27;20027;-51
2021/04/05 08:04:40;;;;;;;15.63;7.53;;;;;;;;;;5118298;27;20047;-52
2021/04/05 08:07:29;;;;;;;7.35;2.95;;;;;;;;;;5113859;27;20035;-52
2021/04/05 08:10:01;;;;;;;15.00;6.35;;;;;;;;;;5124324;27;20019;-55
2021/04/05 08:12:30;;;;;;;13.18;6.00;;;;;;;;;;5124549;27;20106;-53
2021/04/05 08:15:07;;;;;;;7.15;4.22;;;;;;;;;;5133678;27;20406;-55
2021/04/05 08:17:45;;;;;;;13.75;6.57;;;;;;;;;;5125017;27;20412;-54
2021/04/05 08:20:29;;;;;;;7.55;4.75;;;;;;;;;;5129184;27;20030;-52
2021/04/05 08:23:13;;;;;;;14.80;6.82;;;;;;;;;;5118392;27;20402;-55
2021/04/05 08:25:56;;;;;;;10.32;3.92;;;;;;;;;;5123606;27;20022;-53
2021/04/05 08:28:29;;;;;;;16.20;8.80;;;;;;;;;;5121430;27;20023;-53
2021/04/05 08:30:54;;;;;;;13.02;8.70;;;;;;;;;;5115628;27;20027;-54
2021/04/05 08:33:35;;;;;;;11.80;5.28;;;;;;;;;;5109672;27;20042;-51
2021/04/05 08:36:15;;;;;;;15.30;6.97;;;;;;;;;;5123456;27;20371;-53
2021/04/05 08:38:49;;;;;;;14.90;5.22;;;;;;;;;;5119931;27;20118;-49
2021/04/05 08:41:20;;;;;;;15.83;7.87;;;;;;;;;;5116825;27;20015;-55
2021/04/05 08:43:51;;;;;;;13.63;6.20;;;;;;;;;;5121793;27;20265;-49
2021/04/05 08:46:18;;;;;;;9.48;4.40;;;;;;;;;;5120148;27;20023;-49
2021/04/05 08:48:45;;;;;;;15.30;7.30;;;;;;;;;;5120593;27;20051;-53
2021/04/05 08:51:16;;;;;;;15.27;7.75;;;;;;;;;;5116275;27;20736;-55
2021/04/05 08:53:45;;;;;;;15.30;8.35;;;;;;;;;;5120784;27;20386;-55
2021/04/05 08:56:11;;;;;;;15.15;5.93;;;;;;;;;;5117727;27;20023;-54
2021/04/05 08:58:40;;;;;;;10.90;5.93;;;;;;;;;;5122487;27;20106;-55
2021/04/05 09:01:07;;;;;;;13.85;6.75;;;;;;;;;;5118968;27;20411;-54
2021/04/05 09:03:34;;;;;;;12.68;5.20;;;;;;;;;;5122606;27;20023;-54
2021/04/05 09:06:02;;;;;;;15.38;9.25;;;;;;;;;;5120360;27;20023;-55
2021/04/05 09:08:28;;;;;;;13.60;9.50;;;;;;;;;;5120097;27;20039;-54
2021/04/05 09:10:58;;;;;;;13.75;5.50;;;;;;;;;;5123461;27;20035;-55
2021/04/05 09:13:42;;;;;;;11.85;7.32;;;;;;;;;;5122087;27;20083;-55
2021/04/05 09:16:23;;;;;;;11.93;5.82;;;;;;;;;;5116605;27;20020;-56
2021/04/05 09:19:09;;;;;;;12.90;6.63;;;;;;;;;;5122155;27;20719;-54
2021/04/05 09:21:53;;;;;;;9.57;5.10;;;;;;;;;;5123071;27;20016;-55
2021/04/05 09:24:26;;;;;;;10.48;7.30;;;;;;;;;;5115490;27;20028;-55
2021/04/05 09:26:57;;;;;;;12.98;5.22;;;;;;;;;;5127317;27;20026;-56
2021/04/05 09:29:26;;;;;;;18.65;8.00;;;;;;;;;;5120428;27;20066;-54
2021/04/05 09:31:51;;;;;;;12.45;5.13;;;;;;;;;;5118653;27;20027;-57
2021/04/05 09:34:19;;;;;;;10.48;3.45;;;;;;;;;;5121674;27;20030;-54
2021/04/05 09:37:03;;;;;;;11.70;6.40;;;;;;;;;;5116728;27;20054;-54
2021/04/05 09:39:28;;;;;;;17.05;10.35;;;;;;;;;;5121374;27;20035;-56
2021/04/05 09:42:00;;;;;;;17.55;10.38;;;;;;;;;;5119408;27;20019;-52
2021/04/05 09:44:44;;;;;;;13.23;9.48;;;;;;;;;;5127580;27;20019;-55
2021/04/05 09:47:21;;;;;;;13.88;5.07;;;;;;;;;;5124802;27;20067;-56
2021/04/05 09:50:05;;;;;;;16.20;7.22;;;;;;;;;;5129835;27;20026;-54
2021/04/05 09:52:30;;;;;;;14.90;8.50;;;;;;;;;;5124485;27;20072;-53
2021/04/05 09:55:07;;;;;;;11.85;6.70;;;;;;;;;;5123867;27;20027;-55
2021/04/05 09:57:38;;;;;;;15.48;8.27;;;;;;;;;;5124968;27;20026;-54
2021/04/05 10:00:10;;;;;;;17.75;9.70;;;;;;;;;;5112652;28;20031;-55
2021/04/05 10:02:41;;;;;;;11.90;7.53;;;;;;;;;;5111189;27;20046;-56
2021/04/05 10:05:09;;;;;;;14.27;7.32;;;;;;;;;;5116962;27;20027;-56
2021/04/05 10:07:35;;;;;;;11.35;6.53;;;;;;;;;;5117782;28;20019;-53
2021/04/05 10:10:01;;;;;;;12.25;6.07;;;;;;;;;;5132613;27;20501;-54
2021/04/05 10:12:28;;;;;;;15.73;10.38;;;;;;;;;;5115641;27;20056;-54
2021/04/05 10:14:55;;;;;;;16.17;7.32;;;;;;;;;;5132902;27;20027;-52
2021/04/05 10:17:22;;;;;;;11.70;6.28;;;;;;;;;;5127237;27;20054;-53
2021/04/05 10:19:52;;;;;;;16.67;9.10;;;;;;;;;;5126672;28;20023;-50
2021/04/05 10:22:18;;;;;;;9.38;4.70;;;;;;;;;;5121339;27;20028;-52
2021/04/05 10:24:44;;;;;;;12.23;9.23;;;;;;;;;;5118871;28;20437;-51
2021/04/05 10:27:10;;;;;;;20.38;9.18;;;;;;;;;;5132654;27;20072;-53
2021/04/05 10:29:36;;;;;;;13.85;8.35;;;;;;;;;;5126536;27;20023;-53
2021/04/05 10:32:04;;;;;;;10.38;5.38;;;;;;;;;;5113969;27;20027;-52
2021/04/05 10:34:32;;;;;;;8.65;4.85;;;;;;;;;;5120655;28;20034;-53
2021/04/05 10:37:01;;;;;;;11.73;4.22;;;;;;;;;;5120712;28;20023;-56
2021/04/05 10:39:26;;;;;;;11.60;5.97;;;;;;;;;;5117354;27;20026;-52
2021/04/05 10:41:57;;;;;;;14.35;9.25;;;;;;;;;;5117824;27;20020;-53
2021/04/05 10:44:23;;;;;;;14.55;8.38;;;;;;;;;;5123131;27;20036;-53
2021/04/05 10:46:52;;;;;;;11.93;6.57;;;;;;;;;;5127363;27;20039;-53
2021/04/05 10:49:22;;;;;;;11.68;5.50;;;;;;;;;;5122451;27;20055;-55
2021/04/05 10:51:49;;;;;;;17.63;7.95;;;;;;;;;;5117830;27;20050;-54
2021/04/05 10:54:19;;;;;;;15.35;8.25;;;;;;;;;;5122324;27;20114;-52
2021/04/05 10:56:49;;;;;;;12.95;7.32;;;;;;;;;;5122516;27;20044;-55
2021/04/05 10:59:22;;;;;;;14.27;8.38;;;;;;;;;;5127935;27;20031;-56
2021/04/05 11:01:51;;;;;;;14.70;7.03;;;;;;;;;;5124690;27;20015;-55
2021/04/05 11:04:18;;;;;;;13.65;6.75;;;;;;;;;;5131795;27;20023;-54
2021/04/05 11:06:44;;;;;;;14.30;7.15;;;;;;;;;;5136650;27;20030;-52
2021/04/05 11:09:09;;;;;;;20.92;10.20;;;;;;;;;;5135893;27;20019;-55
2021/04/05 11:11:36;;;;;;;12.27;5.13;;;;;;;;;;5112133;27;20024;-55
2021/04/05 11:14:04;;;;;;;17.00;8.20;;;;;;;;;;5116550;27;20110;-53
2021/04/05 11:16:30;;;;;;;16.43;8.87;;;;;;;;;;5119422;27;20062;-53
2021/04/05 11:19:01;;;;;;;14.37;7.80;;;;;;;;;;5135343;27;20092;-55
2021/04/05 11:21:32;;;;;;;23.10;12.13;;;;;;;;;;5127991;27;20801;-53
2021/04/05 11:23:58;;;;;;;12.47;6.97;;;;;;;;;;5130491;27;20023;-54
2021/04/05 11:26:31;;;;;;;20.57;11.93;;;;;;;;;;5118172;27;20484;-53
2021/04/05 11:28:58;;;;;;;12.13;7.77;;;;;;;;;;5125634;27;20031;-51
2021/04/05 11:31:23;;;;;;;17.23;8.53;;;;;;;;;;5122376;27;20019;-51
2021/04/05 11:33:49;;;;;;;17.80;10.27;;;;;;;;;;5128268;27;20015;-49
2021/04/05 11:36:14;;;;;;;15.20;7.40;;;;;;;;;;5123757;27;20055;-54
2021/04/05 11:38:43;;;;;;;13.30;7.17;;;;;;;;;;5121578;27;20113;-54
2021/04/05 11:41:10;;;;;;;20.83;6.87;;;;;;;;;;5118399;27;20322;-54
2021/04/05 11:43:38;;;;;;;21.73;10.93;;;;;;;;;;5115712;28;20024;-53
2021/04/05 11:46:08;;;;;;;10.63;6.83;;;;;;;;;;5130886;27;20101;-53
2021/04/05 11:48:33;;;;;;;18.13;9.97;;;;;;;;;;5123398;27;20408;-52
2021/04/05 11:50:58;;;;;;;17.23;10.10;;;;;;;;;;5130900;27;20054;-54
2021/04/05 11:53:47;;;;;;;17.30;8.67;;;;;;;;;;5116007;27;20050;-52
2021/04/05 11:56:12;;;;;;;21.53;12.47;;;;;;;;;;5118208;27;20023;-53
2021/04/05 11:58:39;;;;;;;10.20;7.10;;;;;;;;;;5127108;27;20047;-51
2021/04/05 12:01:09;;;;;;;16.57;8.70;;;;;;;;;;5116082;27;20038;-51
2021/04/05 12:03:49;;;;;;;13.93;9.77;;;;;;;;;;5127874;27;20019;-55
2021/04/05 12:06:43;;;;;;;11.43;6.87;;;;;;;;;;5117359;27;20051;-51
2021/04/05 12:09:12;;;;;;;12.80;7.47;;;;;;;;;;5099942;28;20046;-54
2021/04/05 12:11:46;;;;;;;12.30;7.43;;;;;;;;;;5115489;27;20031;-55
2021/04/05 12:14:16;;;;;;;14.27;8.80;;;;;;;;;;5132369;27;20027;-55
2021/04/05 12:16:47;;;;;;;10.20;7.17;;;;;;;;;;5123690;27;20023;-53
2021/04/05 12:19:13;;;;;;;12.93;8.47;;;;;;;;;;5135184;27;20027;-50
2021/04/05 12:21:38;;;;;;;13.17;8.17;;;;;;;;;;5131337;27;20030;-52
2021/04/05 12:24:04;;;;;;;12.87;8.07;;;;;;;;;;5117213;27;20032;-51
2021/04/05 12:26:31;;;;;;;16.70;8.77;;;;;;;;;;5115173;27;20451;-54
2021/04/05 12:29:06;;;;;;;3.97;2.33;;;;;;;;;;5126738;27;20059;-52
2021/04/05 12:31:33;;;;;;;1.55;0.50;;;;;;;;;;5132006;27;20050;-56
2021/04/05 12:34:06;;;;;;;1.53;0.20;;;;;;;;;;5121364;27;20031;-54
2021/04/05 12:36:33;;;;;;;5.60;2.50;;;;;;;;;;5133741;27;20465;-52
2021/04/05 12:38:59;;;;;;;21.83;6.77;;;;;;;;;;5123829;27;20035;-54
2021/04/05 12:41:30;;;;;;;6.63;1.13;;;;;;;;;;5122048;27;20404;-51
2021/04/05 12:43:56;;;;;;;2.30;0.80;;;;;;;;;;5114211;28;20389;-55
2021/04/05 12:46:21;;;;;;;0.10;0.00;;;;;;;;;;5120598;27;20102;-54
2021/04/05 12:48:47;;;;;;;0.10;0.00;;;;;;;;;;5122384;27;20464;-50
2021/04/05 12:51:14;;;;;;;0.10;0.03;;;;;;;;;;5111712;27;20036;-51
2021/04/05 12:53:42;;;;;;;0.87;0.10;;;;;;;;;;5122796;27;20023;-55
2021/04/05 12:56:14;;;;;;;0.13;0.10;;;;;;;;;;5123639;27;20023;-54
2021/04/05 12:58:40;;;;;;;0.20;0.10;;;;;;;;;;5120836;27;20027;-53
2021/04/05 13:01:05;;;;;;;0.23;0.20;;;;;;;;;;5113860;27;20011;-55
2021/04/05 13:03:38;;;;;;;0.33;0.30;;;;;;;;;;5117207;27;20049;-54
2021/04/05 13:06:06;;;;;;;0.57;0.20;;;;;;;;;;5127156;27;20026;-53
2021/04/05 13:08:31;;;;;;;0.50;0.27;;;;;;;;;;5125259;27;20042;-53
2021/04/05 13:11:02;;;;;;;0.30;0.10;;;;;;;;;;5126320;27;20031;-53
2021/04/05 13:13:30;;;;;;;0.73;0.60;;;;;;;;;;5120761;27;20027;-53
2021/04/05 13:16:05;;;;;;;0.67;0.60;;;;;;;;;;5134280;27;20062;-54
2021/04/05 13:18:32;;;;;;;0.80;0.80;;;;;;;;;;5132193;27;20023;-55
2021/04/05 13:21:00;;;;;;;1.90;1.27;;;;;;;;;;5129479;27;20394;-53
2021/04/05 13:23:25;;;;;;;1.00;0.90;;;;;;;;;;5125616;27;20402;-53
2021/04/05 13:25:56;;;;;;;0.83;0.50;;;;;;;;;;5113173;28;20072;-53
2021/04/05 13:28:22;;;;;;;1.33;1.00;;;;;;;;;;5133861;27;20075;-56
2021/04/05 13:30:49;;;;;;;1.33;0.73;;;;;;;;;;5125730;27;20015;-54
2021/04/05 13:33:15;;;;;;;0.90;0.77;;;;;;;;;;5132037;27;20466;-56
2021/04/05 13:35:40;;;;;;;1.07;0.77;;;;;;;;;;5127666;27;20015;-55
2021/04/05 13:38:07;;;;;;;1.03;0.93;;;;;;;;;;5129147;27;20060;-52
2021/04/05 13:40:34;;;;;;;1.20;0.93;;;;;;;;;;5128421;27;20019;-54
2021/04/05 13:43:04;;;;;;;2.93;1.30;;;;;;;;;;5130630;27;20011;-55
2021/04/05 13:45:35;;;;;;;2.00;1.20;;;;;;;;;;5133509;27;20023;-53
2021/04/05 13:48:02;;;;;;;1.10;1.00;;;;;;;;;;5122291;27;20020;-54
2021/04/05 13:50:29;;;;;;;1.07;0.90;;;;;;;;;;5128233;27;20043;-54
2021/04/05 13:52:56;;;;;;;2.80;1.33;;;;;;;;;;5112019;27;20041;-52
2021/04/05 13:55:23;;;;;;;1.50;1.17;;;;;;;;;;5131240;27;20031;-51
2021/04/05 13:57:49;;;;;;;1.97;1.50;;;;;;;;;;5131285;27;20072;-54
2021/04/05 14:00:28;;;;;;;2.93;1.83;;;;;;;;;;5125794;27;20027;-51
2021/04/05 14:03:02;;;;;;;1.77;1.30;;;;;;;;;;5127653;27;20069;-49
2021/04/05 14:05:31;;;;;;;2.13;1.00;;;;;;;;;;5122457;27;20019;-54
2021/04/05 14:07:59;;;;;;;2.10;1.10;;;;;;;;;;5131215;27;20031;-53
2021/04/05 14:10:25;;;;;;;1.40;1.00;;;;;;;;;;5132195;27;20096;-55
2021/04/05 14:12:51;;;;;;;1.30;1.20;;;;;;;;;;5118145;27;20479;-51
2021/04/05 14:15:22;;;;;;;2.13;1.37;;;;;;;;;;5116411;28;20081;-52
2021/04/05 14:17:54;;;;;;;3.10;0.30;;;;;;;;;;5131077;28;20087;-53
2021/04/05 14:20:24;;;;;;;0.70;0.40;;;;;;;;;;5124705;27;20024;-50
2021/04/05 14:22:53;;;;;;;1.07;0.50;;;;;;;;;;5119015;28;20379;-55
2021/04/05 14:25:26;;;;;;;0.33;0.10;;;;;;;;;;5133012;27;20011;-55
2021/04/05 14:28:07;;;;;;;0.33;0.10;;;;;;;;;;5120536;27;20031;-55
2021/04/05 14:30:35;;;;;;;0.30;0.20;;;;;;;;;;5112330;28;20283;-54
2021/04/05 14:33:02;;;;;;;1.33;0.30;;;;;;;;;;5120439;28;20027;-54
2021/04/05 14:35:30;;;;;;;1.17;0.40;;;;;;;;;;5133144;27;20382;-53
2021/04/05 14:38:01;;;;;;;0.30;0.30;;;;;;;;;;5127907;27;20023;-56
2021/04/05 14:40:30;;;;;;;1.97;0.70;;;;;;;;;;5118959;28;20019;-54
2021/04/05 14:43:01;;;;;;;1.60;1.50;;;;;;;;;;5123484;27;20068;-50